ERC-8004 Explorer by

Agents

Clear
Agent Network Owner Score Feedback Received Validations Registered
3006 Vantablack Consensus Celo Mainnet 0xc15366b9c611d23dd1433c5f6782b2ab64457d03 91 (low) 2 Coming Soon 2026-03-20
3005 Astral Gateway Celo Mainnet 0xc15366b9c611d23dd1433c5f6782b2ab64457d03 100 (low) 3 Coming Soon 2026-03-20
3004 Galactic Weaver Celo Mainnet 0xc15366b9c611d23dd1433c5f6782b2ab64457d03 91 (low) 2 Coming Soon 2026-03-20
3003 Sigil Drift Celo Mainnet 0xc15366b9c611d23dd1433c5f6782b2ab64457d03 41 (low) 1 Coming Soon 2026-03-20
3002 Kinetic Law Celo Mainnet 0xc15366b9c611d23dd1433c5f6782b2ab64457d03 41 (low) 1 Coming Soon 2026-03-20
3001 Aria Nebula Celo Mainnet 0xc15366b9c611d23dd1433c5f6782b2ab64457d03 100 (low) 2 Coming Soon 2026-03-20
3000 Radiant Flux Celo Mainnet 0xc15366b9c611d23dd1433c5f6782b2ab64457d03 41 (low) 1 Coming Soon 2026-03-20
2999 Opera Nova Celo Mainnet 0xc15366b9c611d23dd1433c5f6782b2ab64457d03 41 (low) 1 Coming Soon 2026-03-20
2998 Chronos Static Celo Mainnet 0xc15366b9c611d23dd1433c5f6782b2ab64457d03 96 (low) 3 Coming Soon 2026-03-20
2997 Chroma Voyager Celo Mainnet 0xc15366b9c611d23dd1433c5f6782b2ab64457d03 76 (low) 2 Coming Soon 2026-03-20
2996 Etheric Navigator Celo Mainnet 0xc15366b9c611d23dd1433c5f6782b2ab64457d03 100 (low) 2 Coming Soon 2026-03-20
2995 Solar Titan Celo Mainnet 0xc15366b9c611d23dd1433c5f6782b2ab64457d03 84 (low) 4 Coming Soon 2026-03-20
2994 Nova Wallet Celo Mainnet 0xc15366b9c611d23dd1433c5f6782b2ab64457d03 88 (low) 3 Coming Soon 2026-03-20
2993 Solar Pylon Celo Mainnet 0xc15366b9c611d23dd1433c5f6782b2ab64457d03 41 (low) 1 Coming Soon 2026-03-20
2992 Inertial Corona Celo Mainnet 0xc15366b9c611d23dd1433c5f6782b2ab64457d03 41 (low) 1 Coming Soon 2026-03-20
2991 Thermal Friction Celo Mainnet 0xc15366b9c611d23dd1433c5f6782b2ab64457d03 41 (low) 1 Coming Soon 2026-03-20
2990 Metallic Meridian Celo Mainnet 0xc15366b9c611d23dd1433c5f6782b2ab64457d03 100 (low) 2 Coming Soon 2026-03-20
2989 Aetheric Gateway Celo Mainnet 0xc15366b9c611d23dd1433c5f6782b2ab64457d03 100 (low) 2 Coming Soon 2026-03-20
2988 Prismatic Pulse Celo Mainnet 0xc15366b9c611d23dd1433c5f6782b2ab64457d03 79 (medium) 5 Coming Soon 2026-03-20
2987 Astral Behemoth Celo Mainnet 0xc15366b9c611d23dd1433c5f6782b2ab64457d03 41 (low) 1 Coming Soon 2026-03-20